createdAt,value
2023-07-23T00:02:29.718Z,99762.81
2023-07-23T00:07:32.585Z,99763.84
2023-07-23T00:12:36.933Z,99763.22
2023-07-23T00:17:40.292Z,99753.84
2023-07-23T00:22:43.128Z,99753.25
2023-07-23T00:27:47.303Z,99744.25
2023-07-23T00:32:51.909Z,99748.13
2023-07-23T00:37:54.737Z,99742.81
2023-07-23T00:42:58.906Z,99742.34
2023-07-23T00:48:01.959Z,99744.78
2023-07-23T00:53:04.855Z,99741.50
2023-07-23T00:58:10.406Z,99739.22
2023-07-23T01:03:13.258Z,99734.50
2023-07-23T01:08:16.265Z,99727.31
2023-07-23T01:13:20.847Z,99718.31
2023-07-23T01:18:24.934Z,99712.56
2023-07-23T01:23:29.040Z,99722.16
2023-07-23T01:28:31.876Z,99720.56
2023-07-23T01:33:35.122Z,99716.22
2023-07-23T01:38:39.291Z,99726.84
2023-07-23T01:43:43.250Z,99723.22
2023-07-23T01:48:47.080Z,99718.09
2023-07-23T01:53:51.251Z,99720.97
2023-07-23T01:58:54.024Z,99722.19
2023-07-23T02:03:56.907Z,99716.06
2023-07-23T02:09:01.042Z,99713.41
2023-07-23T02:14:03.978Z,99717.91
2023-07-23T02:19:06.967Z,99727.97
2023-07-23T02:24:11.228Z,99722.66
2023-07-23T02:29:14.129Z,99719.56
2023-07-23T02:34:16.952Z,99709.59
2023-07-23T02:39:21.123Z,99711.63
2023-07-23T02:44:24.162Z,99717.78
2023-07-23T02:49:27.052Z,99725.16
2023-07-23T02:54:31.263Z,99721.06
2023-07-23T02:59:34.072Z,99727.22
2023-07-23T03:04:37.420Z,99737.22
2023-07-23T03:09:41.570Z,99731.13
2023-07-23T03:14:44.422Z,99737.84
2023-07-23T03:19:47.468Z,99733.94
2023-07-23T03:24:52.374Z,99720.25
2023-07-23T03:29:55.194Z,99726.59
2023-07-23T03:34:57.974Z,99721.28
2023-07-23T03:40:02.178Z,99723.13
2023-07-23T03:45:05.928Z,99717.00
2023-07-23T03:50:09.414Z,99748.50
2023-07-23T03:55:14.896Z,99742.78
2023-07-23T04:00:17.808Z,99739.88
2023-07-23T04:05:20.906Z,99751.31
2023-07-23T04:10:25.204Z,99757.84
2023-07-23T04:15:37.871Z,99741.53
2023-07-23T04:20:40.728Z,99748.25
2023-07-23T04:25:44.849Z,99738.41
2023-07-23T04:30:47.668Z,99741.88
2023-07-23T04:35:50.589Z,99744.91
2023-07-23T04:40:54.798Z,99753.25
2023-07-23T04:45:57.746Z,99745.88
2023-07-23T04:51:01.862Z,99755.63
2023-07-23T04:56:07.126Z,99746.22
2023-07-23T05:01:12.294Z,99751.53
2023-07-23T05:06:15.136Z,99745.56
2023-07-23T05:11:19.302Z,99741.59
2023-07-23T05:16:22.240Z,99731.72
2023-07-23T05:21:25.107Z,99731.88
2023-07-23T05:26:29.316Z,99723.09
2023-07-23T05:31:32.489Z,99721.44
2023-07-23T05:36:35.586Z,99730.78
2023-07-23T05:41:39.705Z,99719.88
2023-07-23T05:46:42.575Z,99725.69
2023-07-23T05:51:45.372Z,99723.56
2023-07-23T05:56:49.626Z,99728.22
2023-07-23T06:01:52.870Z,99719.91
2023-07-23T06:06:57.031Z,99712.81
2023-07-23T06:12:01.251Z,99706.47
2023-07-23T06:17:04.154Z,99708.38
2023-07-23T06:22:07.375Z,99704.47
2023-07-23T06:27:11.528Z,99700.06
2023-07-23T06:32:14.400Z,99693.44
2023-07-23T06:37:17.364Z,99691.91
2023-07-23T06:42:21.483Z,99685.13
2023-07-23T06:47:24.539Z,99678.00
2023-07-23T06:52:27.403Z,99676.88
2023-07-23T06:57:31.704Z,99669.91
2023-07-23T07:02:34.501Z,99662.88
2023-07-23T07:07:39.026Z,99656.97
2023-07-23T07:12:43.298Z,99656.16
2023-07-23T07:17:46.969Z,99651.31
2023-07-23T07:22:49.755Z,99655.09
2023-07-23T07:27:53.984Z,99636.78
2023-07-23T07:32:56.940Z,99636.56
2023-07-23T07:37:59.831Z,99639.31
2023-07-23T07:43:04.040Z,99644.78
2023-07-23T07:48:07.347Z,99629.38
2023-07-23T07:53:10.454Z,99625.28
2023-07-23T07:58:16.492Z,99620.00
2023-07-23T08:03:19.979Z,99620.06
2023-07-23T08:08:26.391Z,99614.91
2023-07-23T08:13:31.028Z,99609.72
2023-07-23T08:18:35.079Z,99597.13
2023-07-23T08:23:38.374Z,99597.00
2023-07-23T08:28:45.573Z,99595.34
2023-07-23T08:33:49.935Z,99602.66
2023-07-23T08:38:53.512Z,99589.13
2023-07-23T08:44:29.436Z,99604.09
2023-07-23T08:49:33.880Z,99585.94
2023-07-23T08:54:37.079Z,99574.72
2023-07-23T08:59:41.930Z,99580.22
2023-07-23T09:04:44.865Z,99582.53
2023-07-23T09:09:49.828Z,99571.44
2023-07-23T09:14:54.376Z,99565.16
2023-07-23T09:19:57.356Z,99556.28
2023-07-23T09:25:01.270Z,99567.63
2023-07-23T09:30:06.607Z,99542.91
2023-07-23T09:35:10.626Z,99543.19
2023-07-23T09:40:14.686Z,99549.06
2023-07-23T09:45:19.234Z,99552.59
2023-07-23T09:50:22.337Z,99544.56
2023-07-23T09:55:25.778Z,99537.03
2023-07-23T10:00:30.597Z,99545.66
2023-07-23T10:05:34.286Z,99513.03
2023-07-23T10:10:37.234Z,99522.19
2023-07-23T10:15:41.960Z,99532.63
2023-07-23T10:20:46.921Z,99529.44
2023-07-23T10:25:50.104Z,99521.63
2023-07-23T10:31:25.504Z,99528.09
2023-07-23T10:36:28.911Z,99511.72
2023-07-23T10:41:50.309Z,99503.00
2023-07-23T10:46:56.278Z,99513.19
2023-07-23T10:52:13.784Z,99511.31
2023-07-23T10:57:25.457Z,99500.47
2023-07-23T11:02:30.620Z,99496.13
2023-07-23T11:07:34.310Z,99504.41
2023-07-23T11:12:38.290Z,99479.63
2023-07-23T11:17:50.757Z,99484.25
2023-07-23T11:23:00.554Z,99472.03
2023-07-23T11:28:03.960Z,99452.41
2023-07-23T11:33:08.326Z,99442.66
2023-07-23T11:38:11.322Z,99447.00
2023-07-23T11:43:14.254Z,99436.75
2023-07-23T11:48:20.062Z,99491.69
2023-07-23T11:53:33.705Z,99457.41
2023-07-23T11:58:38.072Z,99458.94
2023-07-23T12:03:44.002Z,99465.75
2023-07-23T12:08:47.714Z,99463.16
2023-07-23T12:13:53.646Z,99463.00
2023-07-23T12:19:02.277Z,99478.28
2023-07-23T12:24:16.315Z,99473.97
2023-07-23T12:29:20.090Z,99476.78
2023-07-23T12:34:25.593Z,99479.56
2023-07-23T12:39:28.739Z,99475.47
2023-07-23T12:44:32.540Z,99473.63
2023-07-23T12:49:37.428Z,99483.09
2023-07-23T12:54:41.265Z,99455.88
2023-07-23T12:59:45.119Z,99463.41
2023-07-23T13:04:49.615Z,99445.66
2023-07-23T13:09:53.240Z,99439.25
2023-07-23T13:14:56.762Z,99435.19
2023-07-23T13:20:03.799Z,99430.00
2023-07-23T13:25:08.001Z,99423.81
2023-07-23T13:30:11.733Z,99393.53
2023-07-23T13:35:16.401Z,99384.53
2023-07-23T13:40:19.538Z,99397.22
2023-07-23T13:45:22.642Z,99409.16
2023-07-23T13:50:34.166Z,99418.81
2023-07-23T13:55:44.392Z,99426.41
2023-07-23T14:00:47.447Z,99432.88
2023-07-23T14:05:52.159Z,99450.31
2023-07-23T14:10:55.828Z,99467.53
2023-07-23T14:15:59.272Z,99517.00
2023-07-23T14:21:03.947Z,99526.25
2023-07-23T14:26:06.987Z,99544.41
2023-07-23T14:31:10.120Z,99551.13
2023-07-23T14:36:14.391Z,99555.59
2023-07-23T14:41:17.399Z,99531.63
2023-07-23T14:46:20.301Z,99518.78
2023-07-23T14:51:24.555Z,99507.69
2023-07-23T14:56:27.589Z,99502.91
2023-07-23T15:01:31.074Z,99511.41
2023-07-23T15:06:36.634Z,99506.06
2023-07-23T15:11:40.203Z,99503.16
2023-07-23T15:16:43.628Z,99497.28
2023-07-23T15:21:48.560Z,99516.09
2023-07-23T15:26:54.043Z,99498.47
2023-07-23T15:31:57.291Z,99505.94
2023-07-23T15:37:01.766Z,99502.84
2023-07-23T15:42:05.603Z,99512.41
2023-07-23T15:47:08.976Z,99508.66
2023-07-23T15:52:13.386Z,99506.63
2023-07-23T15:57:16.265Z,99510.66
2023-07-23T16:02:19.227Z,99511.00
2023-07-23T16:07:23.727Z,99513.47
2023-07-23T16:12:26.733Z,99516.72
2023-07-23T16:17:29.543Z,99503.53
2023-07-23T16:22:33.773Z,99457.44
2023-07-23T16:27:36.972Z,99452.31
2023-07-23T16:32:41.300Z,99474.63
2023-07-23T16:37:48.538Z,99470.66
2023-07-23T16:42:54.570Z,99463.66
2023-07-23T16:47:57.558Z,99464.72
2023-07-23T16:53:01.876Z,99462.09
2023-07-23T16:58:05.004Z,99451.94
2023-07-23T17:03:08.312Z,99440.94
2023-07-23T17:08:12.501Z,99457.88
2023-07-23T17:13:17.390Z,99457.03
2023-07-23T17:18:20.674Z,99456.19
2023-07-23T17:23:25.623Z,99445.56
2023-07-23T17:28:28.503Z,99436.09
2023-07-23T17:33:31.533Z,99432.56
2023-07-23T17:38:35.933Z,99438.38
2023-07-23T17:43:38.977Z,99431.34
2023-07-23T17:48:42.109Z,99420.56
2023-07-23T17:53:47.030Z,99425.88
2023-07-23T17:58:51.025Z,99423.72
2023-07-23T18:03:54.808Z,99434.88
2023-07-23T18:08:59.014Z,99426.25
2023-07-23T18:14:01.905Z,99426.31
2023-07-23T18:19:04.804Z,99423.13
2023-07-23T18:24:09.192Z,99423.72
2023-07-23T18:29:12.170Z,99417.75
2023-07-23T18:34:15.043Z,99413.25
2023-07-23T18:39:19.325Z,99423.28
2023-07-23T18:44:22.215Z,99412.69
2023-07-23T18:49:25.078Z,99414.19
2023-07-23T18:54:29.682Z,99427.09
2023-07-23T18:59:34.475Z,99427.31
2023-07-23T19:04:44.129Z,99429.75
2023-07-23T19:09:50.399Z,99439.97
2023-07-23T19:14:53.278Z,99446.53
2023-07-23T19:19:56.435Z,99445.03
2023-07-23T19:25:00.629Z,99440.41
2023-07-23T19:30:03.673Z,99443.84
2023-07-23T19:35:08.028Z,99440.47
2023-07-23T19:40:13.344Z,99434.38
2023-07-23T19:45:17.135Z,99434.31
2023-07-23T19:50:21.045Z,99428.56
2023-07-23T19:55:25.209Z,99426.63
2023-07-23T20:00:28.308Z,99419.88
2023-07-23T20:05:31.274Z,99415.13
2023-07-23T20:10:35.487Z,99409.50
2023-07-23T20:15:38.710Z,99412.75
2023-07-23T20:20:41.504Z,99417.31
2023-07-23T20:25:51.416Z,99421.13
2023-07-23T20:30:55.599Z,99421.44
2023-07-23T20:35:59.021Z,99418.97
2023-07-23T20:41:05.354Z,99443.56
2023-07-23T20:46:08.407Z,99435.59
2023-07-23T20:51:11.341Z,99437.31
2023-07-23T20:56:17.148Z,99433.88
2023-07-23T21:01:20.120Z,99433.66
2023-07-23T21:06:22.940Z,99431.31
2023-07-23T21:11:27.078Z,99423.59
2023-07-23T21:16:32.580Z,99425.44
2023-07-23T21:21:35.693Z,99424.97
2023-07-23T21:26:41.812Z,99421.81
2023-07-23T21:31:44.630Z,99427.97
2023-07-23T21:36:47.521Z,99426.84
2023-07-23T21:41:51.863Z,99421.25
2023-07-23T21:46:55.004Z,99416.72
2023-07-23T21:51:57.789Z,99410.19
2023-07-23T21:57:02.043Z,99411.25
2023-07-23T22:02:05.237Z,99411.25
2023-07-23T22:07:08.128Z,99412.31
2023-07-23T22:12:12.252Z,99399.69
2023-07-23T22:17:15.038Z,99408.44
2023-07-23T22:22:20.290Z,99401.97
2023-07-23T22:27:25.769Z,99408.56
2023-07-23T22:32:32.151Z,99405.88
2023-07-23T22:37:36.673Z,99401.03
2023-07-23T22:42:42.522Z,99397.78
2023-07-23T22:47:45.793Z,99400.72
2023-07-23T22:52:48.556Z,99395.41
2023-07-23T22:57:52.894Z,99395.50
2023-07-23T23:02:55.737Z,99393.38
2023-07-23T23:07:58.622Z,99378.38
2023-07-23T23:13:02.765Z,99380.19
2023-07-23T23:18:05.535Z,99370.63
2023-07-23T23:23:08.407Z,99362.78
2023-07-23T23:28:12.608Z,99357.94
2023-07-23T23:33:15.433Z,99371.22
2023-07-23T23:38:18.214Z,99370.59
2023-07-23T23:43:22.704Z,99365.91
2023-07-23T23:48:26.582Z,99365.53
2023-07-23T23:53:29.558Z,99357.06
2023-07-23T23:58:33.748Z,99353.53
